createdAt,value
2022-11-26T00:01:00.199Z,87.86
2022-11-26T00:03:26.562Z,88.27
2022-11-26T00:05:56.628Z,87.88
2022-11-26T00:08:30.963Z,88.28
2022-11-26T00:10:57.301Z,88.48
2022-11-26T00:13:26.563Z,88.65
2022-11-26T00:15:53.272Z,88.51
2022-11-26T00:18:20.478Z,87.95
2022-11-26T00:20:53.115Z,88.13
2022-11-26T00:23:24.500Z,88.12
2022-11-26T00:25:55.015Z,88.34
2022-11-26T00:28:27.176Z,88.17
2022-11-26T00:30:56.035Z,87.88
2022-11-26T00:33:23.032Z,88.07
2022-11-26T00:35:52.253Z,88.12
2022-11-26T00:38:21.077Z,87.95
2022-11-26T00:40:47.774Z,88.07
2022-11-26T00:43:16.046Z,88.06
2022-11-26T00:45:42.534Z,88.13
2022-11-26T00:48:08.938Z,87.94
2022-11-26T00:50:43.519Z,87.25
2022-11-26T00:53:13.751Z,88.10
2022-11-26T00:55:43.634Z,88.04
2022-11-26T00:58:22.152Z,88.38
2022-11-26T01:00:48.945Z,88.34
2022-11-26T01:03:15.378Z,88.46
2022-11-26T01:05:41.699Z,88.62
2022-11-26T01:08:34.742Z,88.57
2022-11-26T01:11:03.213Z,88.54
2022-11-26T01:13:30.598Z,88.43
2022-11-26T01:15:58.472Z,88.58
2022-11-26T01:18:24.988Z,88.61
2022-11-26T01:20:51.659Z,88.50
2022-11-26T01:23:19.079Z,88.85
2022-11-26T01:25:46.939Z,88.54
2022-11-26T01:28:18.054Z,88.48
2022-11-26T01:30:45.241Z,87.80
2022-11-26T01:33:11.566Z,87.98
2022-11-26T01:35:37.956Z,87.99
2022-11-26T01:38:04.509Z,88.13
2022-11-26T01:40:36.580Z,87.66
2022-11-26T01:43:15.153Z,87.60
2022-11-26T01:45:41.524Z,87.68
2022-11-26T01:48:33.565Z,87.51
2022-11-26T01:51:10.100Z,87.65
2022-11-26T01:53:47.585Z,87.92
2022-11-26T01:56:17.350Z,87.65
2022-11-26T01:58:48.872Z,87.86
2022-11-26T02:01:15.725Z,87.98
2022-11-26T02:03:53.221Z,87.80
2022-11-26T02:06:26.066Z,88.17
2022-11-26T02:08:53.412Z,88.08
2022-11-26T02:11:23.322Z,88.00
2022-11-26T02:13:53.970Z,87.66
2022-11-26T02:16:56.569Z,87.41
2022-11-26T02:19:42.783Z,87.39
2022-11-26T02:22:38.978Z,87.09
2022-11-26T02:25:30.365Z,87.21
2022-11-26T02:28:05.704Z,86.72
2022-11-26T02:30:36.802Z,87.38
2022-11-26T02:33:22.044Z,87.01
2022-11-26T02:36:01.521Z,87.06
2022-11-26T02:38:30.423Z,87.14
2022-11-26T02:40:57.287Z,87.37
2022-11-26T02:43:25.389Z,87.54
2022-11-26T02:46:01.391Z,87.70
2022-11-26T02:48:34.436Z,87.51
2022-11-26T02:51:07.136Z,87.25
2022-11-26T02:53:35.423Z,87.54
2022-11-26T02:56:19.374Z,87.48
2022-11-26T02:58:45.811Z,87.53
2022-11-26T03:01:19.209Z,87.79
2022-11-26T03:03:50.680Z,87.83
2022-11-26T03:06:18.911Z,87.64
2022-11-26T03:08:45.678Z,87.52
2022-11-26T03:11:12.593Z,87.72
2022-11-26T03:13:39.010Z,87.67
2022-11-26T03:16:05.437Z,87.18
2022-11-26T03:18:31.792Z,87.15
2022-11-26T03:20:58.157Z,87.31
2022-11-26T03:23:24.539Z,87.18
2022-11-26T03:25:50.894Z,87.14
2022-11-26T03:28:17.334Z,87.23
2022-11-26T03:30:43.669Z,87.98
2022-11-26T03:33:10.109Z,87.64
2022-11-26T03:35:36.468Z,87.74
2022-11-26T03:38:02.859Z,87.33
2022-11-26T03:40:29.230Z,87.54
2022-11-26T03:42:55.634Z,87.49
2022-11-26T03:45:22.085Z,87.49
2022-11-26T03:47:48.459Z,87.07
2022-11-26T03:50:14.945Z,87.57
2022-11-26T03:52:41.318Z,87.43
2022-11-26T03:55:08.102Z,87.62
2022-11-26T03:57:34.557Z,87.77
2022-11-26T04:00:00.928Z,87.96
2022-11-26T04:02:27.373Z,87.43
2022-11-26T04:04:53.778Z,87.85
2022-11-26T04:07:20.247Z,88.16
2022-11-26T04:09:46.609Z,88.26
2022-11-26T04:12:13.004Z,88.55
2022-11-26T04:14:39.580Z,88.35
2022-11-26T04:17:06.102Z,88.30
2022-11-26T04:19:32.477Z,88.24
2022-11-26T04:21:58.849Z,88.52
2022-11-26T04:24:25.362Z,88.18
2022-11-26T04:26:51.728Z,88.21
2022-11-26T04:29:18.091Z,88.30
2022-11-26T04:31:44.497Z,88.39
2022-11-26T04:34:10.955Z,88.65
2022-11-26T04:36:39.194Z,88.55
2022-11-26T04:39:05.642Z,88.19
2022-11-26T04:41:31.983Z,88.60
2022-11-26T04:43:58.339Z,88.83
2022-11-26T04:46:24.770Z,88.99
2022-11-26T04:48:51.128Z,89.16
2022-11-26T04:51:17.518Z,88.87
2022-11-26T04:53:43.871Z,88.95
2022-11-26T04:56:10.234Z,89.14
2022-11-26T04:58:36.623Z,89.20
2022-11-26T05:01:03.174Z,89.09
2022-11-26T05:03:29.905Z,88.98
2022-11-26T05:05:56.302Z,89.10
2022-11-26T05:08:22.674Z,89.02
2022-11-26T05:10:54.067Z,89.31
2022-11-26T05:13:20.658Z,89.19
2022-11-26T05:15:47.360Z,88.71
2022-11-26T05:18:13.810Z,88.98
2022-11-26T05:20:40.186Z,89.09
2022-11-26T05:23:06.544Z,88.98
2022-11-26T05:25:32.889Z,88.84
2022-11-26T05:27:59.291Z,88.82
2022-11-26T05:30:25.691Z,89.02
2022-11-26T05:32:52.084Z,89.08
2022-11-26T05:35:18.587Z,88.88
2022-11-26T05:37:45.150Z,88.87
2022-11-26T05:40:12.007Z,88.79
2022-11-26T05:42:38.981Z,88.86
2022-11-26T05:45:06.302Z,88.74
2022-11-26T05:47:32.665Z,88.78
2022-11-26T05:49:59.016Z,88.67
2022-11-26T05:52:25.435Z,88.59
2022-11-26T05:54:51.850Z,89.10
2022-11-26T05:57:19.942Z,88.81
2022-11-26T05:59:49.054Z,88.98
2022-11-26T06:02:15.475Z,88.98
2022-11-26T06:04:43.069Z,88.98
2022-11-26T06:07:10.192Z,88.66
2022-11-26T06:09:37.259Z,88.53
2022-11-26T06:12:04.182Z,88.71
2022-11-26T06:14:30.541Z,88.36
2022-11-26T06:16:56.927Z,88.61
2022-11-26T06:19:23.393Z,88.68
2022-11-26T06:21:49.930Z,88.65
2022-11-26T06:24:16.281Z,88.81
2022-11-26T06:26:42.635Z,88.71
2022-11-26T06:29:08.991Z,88.60
2022-11-26T06:31:35.364Z,88.71
2022-11-26T06:34:01.804Z,88.60
2022-11-26T06:36:28.159Z,88.28
2022-11-26T06:38:54.573Z,88.43
2022-11-26T06:41:20.962Z,88.31
2022-11-26T06:43:47.425Z,88.19
2022-11-26T06:46:14.217Z,88.54
2022-11-26T06:48:41.121Z,88.25
2022-11-26T06:51:13.022Z,88.71
2022-11-26T06:53:39.805Z,88.35
2022-11-26T06:56:08.429Z,87.95
2022-11-26T06:58:34.858Z,87.70
2022-11-26T07:01:11.028Z,87.58
2022-11-26T07:03:37.605Z,87.94
2022-11-26T07:06:04.309Z,87.83
2022-11-26T07:08:30.756Z,87.79
2022-11-26T07:11:04.045Z,87.43
2022-11-26T07:13:30.455Z,87.83
2022-11-26T07:16:02.746Z,87.24
2022-11-26T07:18:29.623Z,87.90
2022-11-26T07:20:56.643Z,87.84
2022-11-26T07:23:23.032Z,88.02
2022-11-26T07:25:49.426Z,87.69
2022-11-26T07:28:15.792Z,88.31
2022-11-26T07:30:42.202Z,87.90
2022-11-26T07:33:08.635Z,88.12
2022-11-26T07:35:34.995Z,88.34
2022-11-26T07:38:01.408Z,87.48
2022-11-26T07:40:27.821Z,88.21
2022-11-26T07:42:54.253Z,87.59
2022-11-26T07:45:24.132Z,88.21
2022-11-26T07:47:50.485Z,88.20
2022-11-26T07:50:17.039Z,88.12
2022-11-26T07:52:43.417Z,88.32
2022-11-26T07:55:12.703Z,88.07
2022-11-26T07:57:39.255Z,88.05
2022-11-26T08:00:06.445Z,88.53
2022-11-26T08:02:38.350Z,88.97
2022-11-26T08:05:05.410Z,89.33
2022-11-26T08:07:31.944Z,89.26
2022-11-26T08:09:58.371Z,89.24
2022-11-26T08:12:24.850Z,89.06
2022-11-26T08:14:51.229Z,89.10
2022-11-26T08:17:17.589Z,89.00
2022-11-26T08:19:44.001Z,89.02
2022-11-26T08:22:10.439Z,89.04
2022-11-26T08:24:37.041Z,89.15
2022-11-26T08:27:03.665Z,89.00
2022-11-26T08:29:30.036Z,88.34
2022-11-26T08:31:56.660Z,88.52
2022-11-26T08:34:23.078Z,88.18
2022-11-26T08:36:49.444Z,88.04
2022-11-26T08:39:17.807Z,87.98
2022-11-26T08:41:50.309Z,87.60
2022-11-26T08:44:19.475Z,87.59
2022-11-26T08:46:45.898Z,87.72
2022-11-26T08:49:13.452Z,87.28
2022-11-26T08:51:39.903Z,87.06
2022-11-26T08:54:06.715Z,87.21
2022-11-26T08:56:34.257Z,86.49
2022-11-26T08:59:00.695Z,85.65
2022-11-26T09:01:30.048Z,85.49
2022-11-26T09:03:59.082Z,85.08
2022-11-26T09:06:27.941Z,84.96
2022-11-26T09:09:12.716Z,85.12
2022-11-26T09:11:45.375Z,83.88
2022-11-26T09:14:12.847Z,83.57
2022-11-26T09:16:39.927Z,83.02
2022-11-26T09:19:07.509Z,82.94
2022-11-26T09:21:35.124Z,82.28
2022-11-26T09:24:02.083Z,81.44
2022-11-26T09:26:31.133Z,81.63
2022-11-26T09:28:57.747Z,81.07
2022-11-26T09:31:24.350Z,80.99
2022-11-26T09:33:51.342Z,80.03
2022-11-26T09:36:18.726Z,80.15
2022-11-26T09:38:45.691Z,79.91
2022-11-26T09:41:46.056Z,80.36
2022-11-26T09:44:47.391Z,79.94
2022-11-26T09:47:45.524Z,80.04
2022-11-26T09:50:14.704Z,79.54
2022-11-26T09:52:55.418Z,78.83
2022-11-26T09:55:33.552Z,78.18
2022-11-26T09:58:26.590Z,77.74
2022-11-26T10:00:57.991Z,78.06
2022-11-26T10:03:31.752Z,77.64
2022-11-26T10:06:02.027Z,76.67
2022-11-26T10:08:45.529Z,76.46
2022-11-26T10:11:36.672Z,76.61
2022-11-26T10:14:30.799Z,76.24
2022-11-26T10:17:12.327Z,75.88
2022-11-26T10:20:00.072Z,75.98
2022-11-26T10:22:32.317Z,76.01
2022-11-26T10:24:59.921Z,76.05
2022-11-26T10:27:30.765Z,75.55
2022-11-26T10:30:20.508Z,75.52
2022-11-26T10:32:49.762Z,76.10
2022-11-26T10:35:21.520Z,76.14
2022-11-26T10:37:48.976Z,75.52
2022-11-26T10:40:26.786Z,75.76
2022-11-26T10:43:08.462Z,76.07
2022-11-26T10:45:36.762Z,76.36
2022-11-26T10:48:21.806Z,75.99
2022-11-26T10:50:57.909Z,75.83
2022-11-26T10:53:26.078Z,75.48
2022-11-26T10:55:56.900Z,75.47
2022-11-26T10:58:42.567Z,75.15
2022-11-26T11:01:09.881Z,74.68
2022-11-26T11:04:08.838Z,74.72
2022-11-26T11:06:40.773Z,74.56
2022-11-26T11:09:28.366Z,74.46
2022-11-26T11:12:13.286Z,74.67
2022-11-26T11:14:43.334Z,74.41
2022-11-26T11:17:33.423Z,74.91
2022-11-26T11:20:14.516Z,74.34
2022-11-26T11:22:45.474Z,74.88
2022-11-26T11:25:23.651Z,74.37
2022-11-26T11:27:50.769Z,74.09
2022-11-26T11:30:29.252Z,74.29
2022-11-26T11:32:57.406Z,74.26
2022-11-26T11:35:31.436Z,73.98
2022-11-26T11:37:58.914Z,74.00
2022-11-26T11:40:29.045Z,73.19
2022-11-26T11:43:04.058Z,73.45
2022-11-26T11:45:34.843Z,73.55
2022-11-26T11:48:24.566Z,73.20
2022-11-26T11:50:58.081Z,73.63
2022-11-26T11:53:47.334Z,73.57
2022-11-26T11:56:25.962Z,73.91
2022-11-26T11:58:52.285Z,73.71
2022-11-26T12:01:44.111Z,72.91
2022-11-26T12:04:43.085Z,73.38
2022-11-26T12:07:31.627Z,73.62
2022-11-26T12:10:10.243Z,73.21
2022-11-26T12:12:42.227Z,73.19
2022-11-26T12:15:33.569Z,73.10
2022-11-26T12:18:41.012Z,73.33
2022-11-26T12:21:21.542Z,73.14
2022-11-26T12:24:11.397Z,73.07
2022-11-26T12:26:48.377Z,73.26
2022-11-26T12:29:25.720Z,73.71
2022-11-26T12:32:02.272Z,73.29
2022-11-26T12:34:34.734Z,73.83
2022-11-26T12:37:11.024Z,73.62
2022-11-26T12:39:53.675Z,73.66
2022-11-26T12:42:45.148Z,73.71
2022-11-26T12:45:38.736Z,74.13
2022-11-26T12:48:26.859Z,73.86
2022-11-26T12:51:06.584Z,73.71
2022-11-26T12:53:49.330Z,73.44
2022-11-26T12:56:30.804Z,73.79
2022-11-26T12:59:13.246Z,73.66
2022-11-26T13:01:39.762Z,73.78
2022-11-26T13:04:36.325Z,73.64
2022-11-26T13:07:00.544Z,73.79
2022-11-26T13:09:45.534Z,73.77
2022-11-26T13:12:37.420Z,73.09
2022-11-26T13:15:35.777Z,73.66
2022-11-26T13:18:04.426Z,73.38
2022-11-26T13:20:44.002Z,73.25
2022-11-26T13:23:38.092Z,73.26
2022-11-26T13:26:26.322Z,73.74
2022-11-26T13:29:13.981Z,73.17
2022-11-26T13:31:59.241Z,73.64
2022-11-26T13:34:38.470Z,73.15
2022-11-26T13:37:14.430Z,73.63
2022-11-26T13:40:25.522Z,73.65
2022-11-26T13:43:30.482Z,73.75
2022-11-26T13:46:16.453Z,73.22
2022-11-26T13:48:57.448Z,73.24
2022-11-26T13:51:32.982Z,73.27
2022-11-26T13:54:09.376Z,72.62
2022-11-26T13:56:37.516Z,72.97
2022-11-26T13:59:26.824Z,72.86
2022-11-26T14:01:55.280Z,73.01
2022-11-26T14:04:24.707Z,73.07
2022-11-26T14:07:06.339Z,73.04
2022-11-26T14:09:41.991Z,73.27
2022-11-26T14:12:12.832Z,72.94
2022-11-26T14:14:48.714Z,72.67
2022-11-26T14:17:22.734Z,72.32
2022-11-26T14:19:49.021Z,72.04
2022-11-26T14:22:21.496Z,71.89
2022-11-26T14:24:48.097Z,72.02
2022-11-26T14:27:19.406Z,71.75
2022-11-26T14:30:07.401Z,71.33
2022-11-26T14:32:39.628Z,71.47
2022-11-26T14:35:25.282Z,71.13
2022-11-26T14:37:57.776Z,71.42
2022-11-26T14:40:41.978Z,71.18
2022-11-26T14:43:19.324Z,71.30
2022-11-26T14:45:48.653Z,71.42
2022-11-26T14:48:26.541Z,71.57
2022-11-26T14:50:54.869Z,71.76
2022-11-26T14:53:23.652Z,71.62
2022-11-26T14:55:51.733Z,72.09
2022-11-26T14:58:29.575Z,71.99
2022-11-26T15:01:05.835Z,72.08
2022-11-26T15:03:32.424Z,72.06
2022-11-26T15:05:58.820Z,71.77
2022-11-26T15:08:26.961Z,71.41
2022-11-26T15:11:06.556Z,72.22
2022-11-26T15:13:41.351Z,72.03
2022-11-26T15:16:26.042Z,72.27
2022-11-26T15:18:54.579Z,72.13
2022-11-26T15:21:24.938Z,72.06
2022-11-26T15:23:53.330Z,72.38
2022-11-26T15:26:24.966Z,71.98
2022-11-26T15:28:51.331Z,72.35
2022-11-26T15:31:17.845Z,72.32
2022-11-26T15:33:45.206Z,72.70
2022-11-26T15:36:17.132Z,72.62
2022-11-26T15:39:05.974Z,72.80
2022-11-26T15:41:42.282Z,73.07
2022-11-26T15:44:22.160Z,72.92
2022-11-26T15:46:52.300Z,73.47
2022-11-26T15:49:22.617Z,73.55
2022-11-26T15:51:53.437Z,73.39
2022-11-26T15:54:38.424Z,72.94
2022-11-26T15:57:39.927Z,73.40
2022-11-26T16:00:35.657Z,73.46
2022-11-26T16:03:02.826Z,73.15
2022-11-26T16:05:39.222Z,73.36
2022-11-26T16:08:23.654Z,73.65
2022-11-26T16:11:02.578Z,73.57
2022-11-26T16:13:34.530Z,74.33
2022-11-26T16:16:08.872Z,74.56
2022-11-26T16:18:54.078Z,74.58
2022-11-26T16:21:24.268Z,74.44
2022-11-26T16:24:22.248Z,74.63
2022-11-26T16:27:17.740Z,74.37
2022-11-26T16:29:45.246Z,74.44
2022-11-26T16:32:12.695Z,74.08
2022-11-26T16:34:39.623Z,73.95
2022-11-26T16:37:29.230Z,74.20
2022-11-26T16:40:14.351Z,73.74
2022-11-26T16:42:40.956Z,74.04
2022-11-26T16:45:09.004Z,74.15
2022-11-26T16:47:39.279Z,74.23
2022-11-26T16:50:13.379Z,74.62
2022-11-26T16:52:41.279Z,74.78
2022-11-26T16:55:12.227Z,74.57
2022-11-26T16:57:38.652Z,74.27
2022-11-26T17:00:09.553Z,74.66
2022-11-26T17:02:36.031Z,74.37
2022-11-26T17:05:02.589Z,73.84
2022-11-26T17:07:40.737Z,74.11
2022-11-26T17:10:10.926Z,74.35
2022-11-26T17:12:37.252Z,74.84
2022-11-26T17:15:03.947Z,74.42
2022-11-26T17:17:30.382Z,74.04
2022-11-26T17:19:56.823Z,74.75
2022-11-26T17:22:26.001Z,74.99
2022-11-26T17:24:52.473Z,74.26
2022-11-26T17:27:20.839Z,74.96
2022-11-26T17:29:47.533Z,74.59
2022-11-26T17:32:16.987Z,74.78
2022-11-26T17:34:44.761Z,74.47
2022-11-26T17:37:19.645Z,75.27
2022-11-26T17:39:46.026Z,75.33
2022-11-26T17:42:12.361Z,75.39
2022-11-26T17:44:38.723Z,75.37
2022-11-26T17:47:17.733Z,75.08
2022-11-26T17:49:45.259Z,75.43
2022-11-26T17:52:12.157Z,75.76
2022-11-26T17:54:38.744Z,75.92
2022-11-26T17:57:05.145Z,75.68
2022-11-26T17:59:32.522Z,75.75
2022-11-26T18:01:59.045Z,76.09
2022-11-26T18:04:25.443Z,75.97
2022-11-26T18:07:06.725Z,76.18
2022-11-26T18:09:33.796Z,75.92
2022-11-26T18:12:00.992Z,76.46
2022-11-26T18:14:28.454Z,76.91
2022-11-26T18:16:55.397Z,76.94
2022-11-26T18:19:23.369Z,76.95
2022-11-26T18:21:50.611Z,76.39
2022-11-26T18:24:17.529Z,76.99
2022-11-26T18:26:43.847Z,76.73
2022-11-26T18:29:10.815Z,76.78
2022-11-26T18:31:39.665Z,76.08
2022-11-26T18:34:06.638Z,75.99
2022-11-26T18:36:32.973Z,76.35
2022-11-26T18:38:59.340Z,76.67
2022-11-26T18:41:25.714Z,76.77
2022-11-26T18:43:52.034Z,76.82
2022-11-26T18:46:18.772Z,77.10
2022-11-26T18:48:49.727Z,76.43
2022-11-26T18:51:16.858Z,76.68
2022-11-26T18:53:44.264Z,77.03
2022-11-26T18:56:16.273Z,76.79
2022-11-26T18:58:43.080Z,76.77
2022-11-26T19:01:14.940Z,76.94
2022-11-26T19:03:44.132Z,76.77
2022-11-26T19:06:14.346Z,76.56
2022-11-26T19:08:40.864Z,77.29
2022-11-26T19:11:11.888Z,76.72
2022-11-26T19:13:38.580Z,76.68
2022-11-26T19:16:15.831Z,76.72
2022-11-26T19:18:43.184Z,77.16
2022-11-26T19:21:21.614Z,76.82
2022-11-26T19:23:48.806Z,76.82
2022-11-26T19:26:15.680Z,77.33
2022-11-26T19:28:42.394Z,77.34
2022-11-26T19:31:14.472Z,77.64
2022-11-26T19:33:41.601Z,77.81
2022-11-26T19:36:11.068Z,78.14
2022-11-26T19:38:37.897Z,77.60
2022-11-26T19:41:05.247Z,78.07
2022-11-26T19:43:37.085Z,77.93
2022-11-26T19:46:16.951Z,77.84
2022-11-26T19:48:47.294Z,77.84
2022-11-26T19:51:15.299Z,77.61
2022-11-26T19:53:47.492Z,77.66
2022-11-26T19:56:19.642Z,78.53
2022-11-26T19:58:46.496Z,78.17
2022-11-26T20:01:18.244Z,78.22
2022-11-26T20:03:44.719Z,78.01
2022-11-26T20:06:26.040Z,78.68
2022-11-26T20:08:55.055Z,78.61
2022-11-26T20:11:22.674Z,78.60
2022-11-26T20:13:49.980Z,78.88
2022-11-26T20:16:22.123Z,78.75
2022-11-26T20:18:49.229Z,78.66
2022-11-26T20:21:19.740Z,78.45
2022-11-26T20:23:46.820Z,78.54
2022-11-26T20:26:17.270Z,78.83
2022-11-26T20:28:47.454Z,78.80
2022-11-26T20:31:17.250Z,78.80
2022-11-26T20:33:47.560Z,78.74
2022-11-26T20:36:17.962Z,78.92
2022-11-26T20:38:44.355Z,78.92
2022-11-26T20:41:15.885Z,79.27
2022-11-26T20:43:42.860Z,79.20
2022-11-26T20:46:11.413Z,79.23
2022-11-26T20:48:39.724Z,79.10
2022-11-26T20:51:08.770Z,79.21
2022-11-26T20:53:37.225Z,79.04
2022-11-26T20:56:04.752Z,79.14
2022-11-26T20:58:32.316Z,79.50
2022-11-26T21:00:58.840Z,79.30
2022-11-26T21:03:26.999Z,79.57
2022-11-26T21:05:54.168Z,79.80
2022-11-26T21:08:22.781Z,79.62
2022-11-26T21:10:50.082Z,79.67
2022-11-26T21:13:18.716Z,79.83
2022-11-26T21:15:48.998Z,80.05
2022-11-26T21:18:15.388Z,80.23
2022-11-26T21:20:42.848Z,80.10
2022-11-26T21:23:10.567Z,80.12
2022-11-26T21:25:42.173Z,80.25
2022-11-26T21:28:10.712Z,80.22
2022-11-26T21:30:38.093Z,80.07
2022-11-26T21:33:09.084Z,80.09
2022-11-26T21:35:36.907Z,79.92
2022-11-26T21:38:05.164Z,79.79
2022-11-26T21:40:32.968Z,79.94
2022-11-26T21:42:59.358Z,79.79
2022-11-26T21:45:27.471Z,79.83
2022-11-26T21:47:53.850Z,79.59
2022-11-26T21:50:20.232Z,79.91
2022-11-26T21:52:46.623Z,80.18
2022-11-26T21:55:13.074Z,80.06
2022-11-26T21:57:39.395Z,79.89
2022-11-26T22:00:06.415Z,80.14
2022-11-26T22:02:32.786Z,79.94
2022-11-26T22:04:59.178Z,79.47
2022-11-26T22:07:25.612Z,79.73
2022-11-26T22:09:52.151Z,79.65
2022-11-26T22:12:18.560Z,79.68
2022-11-26T22:14:44.898Z,79.77
2022-11-26T22:17:11.296Z,79.43
2022-11-26T22:19:38.139Z,78.90
2022-11-26T22:22:04.686Z,79.30
2022-11-26T22:24:31.166Z,79.71
2022-11-26T22:26:57.569Z,79.48
2022-11-26T22:29:23.928Z,79.53
2022-11-26T22:31:50.439Z,79.52
2022-11-26T22:34:18.708Z,79.49
2022-11-26T22:36:45.548Z,79.34
2022-11-26T22:39:14.186Z,79.32
2022-11-26T22:41:41.669Z,79.14
2022-11-26T22:44:08.633Z,78.73
2022-11-26T22:46:36.057Z,79.25
2022-11-26T22:49:02.786Z,79.08
2022-11-26T22:51:31.397Z,78.98
2022-11-26T22:54:00.504Z,78.99
2022-11-26T22:56:28.381Z,79.16
2022-11-26T22:58:55.088Z,79.15
2022-11-26T23:01:24.117Z,79.27
2022-11-26T23:03:51.746Z,79.13
2022-11-26T23:06:19.909Z,79.48
2022-11-26T23:08:46.514Z,79.76
2022-11-26T23:11:16.284Z,80.28
2022-11-26T23:13:44.296Z,79.83
2022-11-26T23:16:11.068Z,79.70
2022-11-26T23:18:38.340Z,79.79
2022-11-26T23:21:08.030Z,79.53
2022-11-26T23:23:36.078Z,79.68
2022-11-26T23:26:03.203Z,80.05
2022-11-26T23:28:31.606Z,80.06
2022-11-26T23:31:06.196Z,80.19
2022-11-26T23:33:33.401Z,80.18
2022-11-26T23:35:59.893Z,80.16
2022-11-26T23:38:26.454Z,80.13
2022-11-26T23:40:58.321Z,80.24
2022-11-26T23:43:26.241Z,80.47
2022-11-26T23:46:02.332Z,80.66
2022-11-26T23:48:29.192Z,80.54
2022-11-26T23:50:56.031Z,80.91
2022-11-26T23:53:22.620Z,80.32
2022-11-26T23:55:48.965Z,80.55
2022-11-26T23:58:16.456Z,80.34
